sensor_id;sensor_type;location;lat;lon;timestamp;P1;durP1;ratioP1;P2;durP2;ratioP2
31238;SDS011;17871;31.584;74.450;2023-09-19T00:00:48;5.68;;;4.05;;
31238;SDS011;17871;31.584;74.450;2023-09-19T00:03:17;6.00;;;4.18;;
31238;SDS011;17871;31.584;74.450;2023-09-19T00:05:47;7.47;;;4.32;;
31238;SDS011;17871;31.584;74.450;2023-09-19T00:08:16;10.65;;;5.15;;
31238;SDS011;17871;31.584;74.450;2023-09-19T00:10:45;6.03;;;4.10;;
31238;SDS011;17871;31.584;74.450;2023-09-19T00:13:14;8.52;;;4.82;;
31238;SDS011;17871;31.584;74.450;2023-09-19T00:15:44;7.40;;;4.78;;
31238;SDS011;17871;31.584;74.450;2023-09-19T00:18:20;7.93;;;4.97;;
31238;SDS011;17871;31.584;74.450;2023-09-19T00:20:50;8.48;;;4.63;;
31238;SDS011;17871;31.584;74.450;2023-09-19T00:23:20;7.88;;;4.03;;
31238;SDS011;17871;31.584;74.450;2023-09-19T00:25:50;13.77;;;5.80;;
31238;SDS011;17871;31.584;74.450;2023-09-19T00:28:19;24.50;;;7.38;;
31238;SDS011;17871;31.584;74.450;2023-09-19T00:30:50;20.63;;;8.43;;
31238;SDS011;17871;31.584;74.450;2023-09-19T00:33:18;19.70;;;6.28;;
31238;SDS011;17871;31.584;74.450;2023-09-19T00:35:51;11.70;;;5.75;;
31238;SDS011;17871;31.584;74.450;2023-09-19T00:38:21;17.88;;;7.15;;
31238;SDS011;17871;31.584;74.450;2023-09-19T00:40:51;21.80;;;7.30;;
31238;SDS011;17871;31.584;74.450;2023-09-19T00:43:20;21.92;;;6.88;;
31238;SDS011;17871;31.584;74.450;2023-09-19T00:45:52;21.90;;;7.43;;
31238;SDS011;17871;31.584;74.450;2023-09-19T00:48:23;15.63;;;7.90;;
31238;SDS011;17871;31.584;74.450;2023-09-19T00:51:02;14.50;;;7.57;;
31238;SDS011;17871;31.584;74.450;2023-09-19T00:53:33;11.77;;;6.65;;
31238;SDS011;17871;31.584;74.450;2023-09-19T00:56:02;17.83;;;4.97;;
31238;SDS011;17871;31.584;74.450;2023-09-19T00:58:33;11.30;;;5.35;;
31238;SDS011;17871;31.584;74.450;2023-09-19T01:01:03;11.45;;;5.35;;
31238;SDS011;17871;31.584;74.450;2023-09-19T01:03:36;16.38;;;6.38;;
31238;SDS011;17871;31.584;74.450;2023-09-19T01:06:05;14.27;;;6.28;;
31238;SDS011;17871;31.584;74.450;2023-09-19T01:08:38;10.88;;;5.40;;
31238;SDS011;17871;31.584;74.450;2023-09-19T01:16:31;5.88;;;3.35;;
31238;SDS011;17871;31.584;74.450;2023-09-19T01:19:07;8.02;;;3.70;;
31238;SDS011;17871;31.584;74.450;2023-09-19T01:32:08;7.60;;;3.28;;
31238;SDS011;17871;31.584;74.450;2023-09-19T01:34:48;7.10;;;3.60;;
31238;SDS011;17871;31.584;74.450;2023-09-19T01:37:17;5.15;;;2.80;;
31238;SDS011;17871;31.584;74.450;2023-09-19T01:39:59;6.78;;;2.90;;
31238;SDS011;17871;31.584;74.450;2023-09-19T01:42:58;5.13;;;2.40;;
31238;SDS011;17871;31.584;74.450;2023-09-19T01:45:37;7.00;;;3.00;;
31238;SDS011;17871;31.584;74.450;2023-09-19T01:48:17;5.70;;;2.35;;
31238;SDS011;17871;31.584;74.450;2023-09-19T01:51:02;11.85;;;2.85;;
31238;SDS011;17871;31.584;74.450;2023-09-19T01:53:36;5.53;;;2.85;;
31238;SDS011;17871;31.584;74.450;2023-09-19T01:56:10;6.13;;;2.97;;
31238;SDS011;17871;31.584;74.450;2023-09-19T01:58:44;11.52;;;4.75;;
31238;SDS011;17871;31.584;74.450;2023-09-19T02:01:16;10.25;;;5.30;;
31238;SDS011;17871;31.584;74.450;2023-09-19T02:03:47;13.23;;;5.93;;
31238;SDS011;17871;31.584;74.450;2023-09-19T02:06:17;13.15;;;6.78;;
31238;SDS011;17871;31.584;74.450;2023-09-19T02:08:47;14.70;;;8.50;;
31238;SDS011;17871;31.584;74.450;2023-09-19T02:11:16;30.73;;;18.10;;
31238;SDS011;17871;31.584;74.450;2023-09-19T02:13:45;54.38;;;29.52;;
31238;SDS011;17871;31.584;74.450;2023-09-19T02:16:16;67.40;;;36.78;;
31238;SDS011;17871;31.584;74.450;2023-09-19T02:18:46;67.85;;;37.25;;
31238;SDS011;17871;31.584;74.450;2023-09-19T02:21:16;59.17;;;34.83;;
31238;SDS011;17871;31.584;74.450;2023-09-19T02:23:45;60.83;;;33.78;;
31238;SDS011;17871;31.584;74.450;2023-09-19T02:26:16;47.53;;;28.88;;
31238;SDS011;17871;31.584;74.450;2023-09-19T02:28:47;45.10;;;24.52;;
31238;SDS011;17871;31.584;74.450;2023-09-19T02:31:16;43.88;;;23.63;;
31238;SDS011;17871;31.584;74.450;2023-09-19T02:33:45;36.88;;;22.65;;
31238;SDS011;17871;31.584;74.450;2023-09-19T02:36:14;39.67;;;23.30;;
31238;SDS011;17871;31.584;74.450;2023-09-19T02:39:02;37.10;;;22.65;;
31238;SDS011;17871;31.584;74.450;2023-09-19T02:41:33;36.70;;;21.60;;
31238;SDS011;17871;31.584;74.450;2023-09-19T02:44:02;39.53;;;21.77;;
31238;SDS011;17871;31.584;74.450;2023-09-19T02:46:31;42.63;;;24.50;;
31238;SDS011;17871;31.584;74.450;2023-09-19T02:49:00;36.70;;;22.67;;
31238;SDS011;17871;31.584;74.450;2023-09-19T02:51:29;37.90;;;23.63;;
31238;SDS011;17871;31.584;74.450;2023-09-19T02:53:59;35.38;;;23.35;;
31238;SDS011;17871;31.584;74.450;2023-09-19T02:56:28;40.20;;;24.10;;
31238;SDS011;17871;31.584;74.450;2023-09-19T02:58:57;39.00;;;23.33;;
31238;SDS011;17871;31.584;74.450;2023-09-19T03:01:29;40.47;;;23.95;;
31238;SDS011;17871;31.584;74.450;2023-09-19T03:03:58;42.53;;;24.45;;
31238;SDS011;17871;31.584;74.450;2023-09-19T03:06:27;38.30;;;21.75;;
31238;SDS011;17871;31.584;74.450;2023-09-19T03:08:59;37.95;;;24.50;;
31238;SDS011;17871;31.584;74.450;2023-09-19T03:11:28;41.30;;;23.83;;
31238;SDS011;17871;31.584;74.450;2023-09-19T03:13:58;34.42;;;21.60;;
31238;SDS011;17871;31.584;74.450;2023-09-19T03:16:27;25.30;;;16.25;;
31238;SDS011;17871;31.584;74.450;2023-09-19T03:18:58;22.10;;;13.05;;
31238;SDS011;17871;31.584;74.450;2023-09-19T03:21:30;9.00;;;5.55;;
31238;SDS011;17871;31.584;74.450;2023-09-19T03:23:59;8.38;;;4.78;;
31238;SDS011;17871;31.584;74.450;2023-09-19T03:26:29;6.93;;;4.57;;
31238;SDS011;17871;31.584;74.450;2023-09-19T03:28:58;5.40;;;3.63;;
31238;SDS011;17871;31.584;74.450;2023-09-19T03:31:27;4.80;;;2.88;;
31238;SDS011;17871;31.584;74.450;2023-09-19T03:33:57;4.82;;;2.92;;
31238;SDS011;17871;31.584;74.450;2023-09-19T03:36:28;6.53;;;3.17;;
31238;SDS011;17871;31.584;74.450;2023-09-19T03:38:57;3.35;;;2.08;;
31238;SDS011;17871;31.584;74.450;2023-09-19T03:41:27;10.93;;;2.92;;
31238;SDS011;17871;31.584;74.450;2023-09-19T03:43:56;5.68;;;2.13;;
31238;SDS011;17871;31.584;74.450;2023-09-19T03:46:26;5.97;;;2.25;;
31238;SDS011;17871;31.584;74.450;2023-09-19T03:48:55;10.05;;;6.45;;
31238;SDS011;17871;31.584;74.450;2023-09-19T03:51:24;6.05;;;2.50;;
31238;SDS011;17871;31.584;74.450;2023-09-19T03:53:53;2.67;;;1.60;;
31238;SDS011;17871;31.584;74.450;2023-09-19T03:56:22;4.78;;;2.35;;
31238;SDS011;17871;31.584;74.450;2023-09-19T03:58:51;4.57;;;1.75;;
31238;SDS011;17871;31.584;74.450;2023-09-19T04:01:20;3.55;;;1.55;;
31238;SDS011;17871;31.584;74.450;2023-09-19T04:03:50;2.63;;;1.70;;
31238;SDS011;17871;31.584;74.450;2023-09-19T04:06:21;2.78;;;1.77;;
31238;SDS011;17871;31.584;74.450;2023-09-19T04:08:51;5.63;;;2.30;;
31238;SDS011;17871;31.584;74.450;2023-09-19T04:11:20;5.00;;;2.72;;
31238;SDS011;17871;31.584;74.450;2023-09-19T04:13:49;4.95;;;1.95;;
31238;SDS011;17871;31.584;74.450;2023-09-19T04:16:19;2.47;;;1.98;;
31238;SDS011;17871;31.584;74.450;2023-09-19T04:18:48;5.68;;;2.50;;
31238;SDS011;17871;31.584;74.450;2023-09-19T04:21:17;2.75;;;2.15;;
31238;SDS011;17871;31.584;74.450;2023-09-19T04:23:47;5.43;;;2.55;;
31238;SDS011;17871;31.584;74.450;2023-09-19T04:26:16;2.92;;;1.98;;
31238;SDS011;17871;31.584;74.450;2023-09-19T04:28:45;3.53;;;2.17;;
31238;SDS011;17871;31.584;74.450;2023-09-19T04:31:14;4.43;;;2.15;;
31238;SDS011;17871;31.584;74.450;2023-09-19T04:33:44;4.13;;;2.33;;
31238;SDS011;17871;31.584;74.450;2023-09-19T04:36:14;5.93;;;3.92;;
31238;SDS011;17871;31.584;74.450;2023-09-19T04:39:02;3.33;;;2.75;;
31238;SDS011;17871;31.584;74.450;2023-09-19T04:41:36;4.10;;;2.40;;
31238;SDS011;17871;31.584;74.450;2023-09-19T04:44:09;7.15;;;3.20;;
31238;SDS011;17871;31.584;74.450;2023-09-19T04:46:40;8.10;;;3.13;;
31238;SDS011;17871;31.584;74.450;2023-09-19T04:49:09;6.00;;;2.85;;
31238;SDS011;17871;31.584;74.450;2023-09-19T04:51:38;5.95;;;3.60;;
31238;SDS011;17871;31.584;74.450;2023-09-19T04:54:08;5.93;;;2.70;;
31238;SDS011;17871;31.584;74.450;2023-09-19T04:56:37;6.43;;;2.92;;
31238;SDS011;17871;31.584;74.450;2023-09-19T04:59:08;3.72;;;2.30;;
31238;SDS011;17871;31.584;74.450;2023-09-19T05:01:55;3.88;;;1.73;;
31238;SDS011;17871;31.584;74.450;2023-09-19T05:04:24;6.25;;;2.75;;
31238;SDS011;17871;31.584;74.450;2023-09-19T05:06:53;3.50;;;2.00;;
31238;SDS011;17871;31.584;74.450;2023-09-19T05:09:22;3.88;;;1.98;;
31238;SDS011;17871;31.584;74.450;2023-09-19T05:11:51;5.55;;;2.55;;
31238;SDS011;17871;31.584;74.450;2023-09-19T05:14:22;5.15;;;2.80;;
31238;SDS011;17871;31.584;74.450;2023-09-19T05:16:55;4.28;;;2.58;;
31238;SDS011;17871;31.584;74.450;2023-09-19T05:19:24;8.30;;;3.10;;
31238;SDS011;17871;31.584;74.450;2023-09-19T05:21:53;6.68;;;2.85;;
31238;SDS011;17871;31.584;74.450;2023-09-19T05:24:23;12.40;;;3.25;;
31238;SDS011;17871;31.584;74.450;2023-09-19T05:26:54;4.82;;;2.47;;
31238;SDS011;17871;31.584;74.450;2023-09-19T05:29:24;7.20;;;2.83;;
31238;SDS011;17871;31.584;74.450;2023-09-19T05:31:53;5.38;;;2.30;;
31238;SDS011;17871;31.584;74.450;2023-09-19T05:34:23;4.45;;;2.97;;
31238;SDS011;17871;31.584;74.450;2023-09-19T05:36:53;17.55;;;4.88;;
31238;SDS011;17871;31.584;74.450;2023-09-19T05:39:22;11.55;;;5.00;;
31238;SDS011;17871;31.584;74.450;2023-09-19T05:41:51;7.75;;;3.70;;
31238;SDS011;17871;31.584;74.450;2023-09-19T05:44:20;7.15;;;3.40;;
31238;SDS011;17871;31.584;74.450;2023-09-19T05:46:49;7.25;;;3.75;;
31238;SDS011;17871;31.584;74.450;2023-09-19T05:49:19;6.28;;;3.40;;
31238;SDS011;17871;31.584;74.450;2023-09-19T05:51:50;9.55;;;4.00;;
31238;SDS011;17871;31.584;74.450;2023-09-19T05:54:22;5.22;;;4.22;;
31238;SDS011;17871;31.584;74.450;2023-09-19T05:57:07;13.13;;;4.20;;
31238;SDS011;17871;31.584;74.450;2023-09-19T05:59:36;7.20;;;3.72;;
31238;SDS011;17871;31.584;74.450;2023-09-19T06:02:07;9.05;;;5.20;;
31238;SDS011;17871;31.584;74.450;2023-09-19T06:04:38;7.10;;;4.47;;
31238;SDS011;17871;31.584;74.450;2023-09-19T06:07:09;10.15;;;3.80;;
31238;SDS011;17871;31.584;74.450;2023-09-19T06:09:38;5.20;;;3.38;;
31238;SDS011;17871;31.584;74.450;2023-09-19T06:12:24;5.72;;;3.85;;
31238;SDS011;17871;31.584;74.450;2023-09-19T06:14:53;4.93;;;3.22;;
31238;SDS011;17871;31.584;74.450;2023-09-19T06:17:22;4.93;;;3.80;;
31238;SDS011;17871;31.584;74.450;2023-09-19T06:19:51;5.22;;;3.92;;
31238;SDS011;17871;31.584;74.450;2023-09-19T06:22:20;8.52;;;4.03;;
31238;SDS011;17871;31.584;74.450;2023-09-19T06:24:49;10.13;;;4.68;;
31238;SDS011;17871;31.584;74.450;2023-09-19T06:27:18;11.00;;;5.43;;
31238;SDS011;17871;31.584;74.450;2023-09-19T06:29:47;10.60;;;4.82;;
31238;SDS011;17871;31.584;74.450;2023-09-19T06:32:17;6.88;;;4.45;;
31238;SDS011;17871;31.584;74.450;2023-09-19T06:34:51;9.25;;;5.07;;
31238;SDS011;17871;31.584;74.450;2023-09-19T06:37:22;7.55;;;4.57;;
31238;SDS011;17871;31.584;74.450;2023-09-19T06:39:52;5.40;;;3.90;;
31238;SDS011;17871;31.584;74.450;2023-09-19T06:42:21;6.15;;;4.15;;
31238;SDS011;17871;31.584;74.450;2023-09-19T06:44:53;6.60;;;3.90;;
31238;SDS011;17871;31.584;74.450;2023-09-19T06:47:22;6.53;;;4.03;;
31238;SDS011;17871;31.584;74.450;2023-09-19T06:49:54;5.72;;;4.10;;
31238;SDS011;17871;31.584;74.450;2023-09-19T06:52:23;7.13;;;4.88;;
31238;SDS011;17871;31.584;74.450;2023-09-19T06:54:53;6.55;;;4.15;;
31238;SDS011;17871;31.584;74.450;2023-09-19T06:57:22;6.53;;;3.92;;
31238;SDS011;17871;31.584;74.450;2023-09-19T06:59:52;7.93;;;5.10;;
31238;SDS011;17871;31.584;74.450;2023-09-19T07:02:21;7.75;;;5.18;;
31238;SDS011;17871;31.584;74.450;2023-09-19T07:04:51;6.60;;;5.22;;
31238;SDS011;17871;31.584;74.450;2023-09-19T07:07:20;7.00;;;4.93;;
31238;SDS011;17871;31.584;74.450;2023-09-19T07:09:49;8.63;;;5.32;;
31238;SDS011;17871;31.584;74.450;2023-09-19T07:12:20;7.45;;;4.35;;
31238;SDS011;17871;31.584;74.450;2023-09-19T07:14:49;4.82;;;3.72;;
31238;SDS011;17871;31.584;74.450;2023-09-19T07:17:18;7.15;;;3.40;;
31238;SDS011;17871;31.584;74.450;2023-09-19T07:19:49;6.80;;;3.08;;
31238;SDS011;17871;31.584;74.450;2023-09-19T07:22:19;6.22;;;3.60;;
31238;SDS011;17871;31.584;74.450;2023-09-19T07:24:49;11.38;;;4.45;;
31238;SDS011;17871;31.584;74.450;2023-09-19T07:27:18;11.35;;;4.78;;
31238;SDS011;17871;31.584;74.450;2023-09-19T07:29:47;9.80;;;5.47;;
31238;SDS011;17871;31.584;74.450;2023-09-19T07:32:19;7.65;;;4.68;;
31238;SDS011;17871;31.584;74.450;2023-09-19T07:34:48;8.43;;;4.30;;
31238;SDS011;17871;31.584;74.450;2023-09-19T07:37:17;10.23;;;5.47;;
31238;SDS011;17871;31.584;74.450;2023-09-19T07:39:47;7.45;;;4.47;;
31238;SDS011;17871;31.584;74.450;2023-09-19T07:42:16;9.88;;;4.40;;
31238;SDS011;17871;31.584;74.450;2023-09-19T07:44:46;6.38;;;4.15;;
31238;SDS011;17871;31.584;74.450;2023-09-19T07:47:15;8.05;;;4.05;;
31238;SDS011;17871;31.584;74.450;2023-09-19T07:49:46;5.68;;;4.10;;
31238;SDS011;17871;31.584;74.450;2023-09-19T07:52:16;5.28;;;3.88;;
31238;SDS011;17871;31.584;74.450;2023-09-19T07:54:45;16.75;;;4.72;;
31238;SDS011;17871;31.584;74.450;2023-09-19T07:57:16;4.75;;;3.55;;
31238;SDS011;17871;31.584;74.450;2023-09-19T07:59:45;8.85;;;4.35;;
31238;SDS011;17871;31.584;74.450;2023-09-19T08:02:14;5.22;;;3.72;;
31238;SDS011;17871;31.584;74.450;2023-09-19T08:04:47;5.07;;;4.03;;
31238;SDS011;17871;31.584;74.450;2023-09-19T08:07:16;6.78;;;4.47;;
31238;SDS011;17871;31.584;74.450;2023-09-19T08:10:01;6.25;;;4.10;;
31238;SDS011;17871;31.584;74.450;2023-09-19T08:12:30;6.80;;;4.18;;
31238;SDS011;17871;31.584;74.450;2023-09-19T08:15:01;7.55;;;4.32;;
31238;SDS011;17871;31.584;74.450;2023-09-19T08:17:48;7.40;;;5.45;;
31238;SDS011;17871;31.584;74.450;2023-09-19T08:20:17;6.38;;;5.15;;
31238;SDS011;17871;31.584;74.450;2023-09-19T08:22:51;7.70;;;4.72;;
31238;SDS011;17871;31.584;74.450;2023-09-19T08:25:23;12.18;;;6.28;;
31238;SDS011;17871;31.584;74.450;2023-09-19T08:27:55;9.35;;;5.85;;
31238;SDS011;17871;31.584;74.450;2023-09-19T08:30:26;11.35;;;5.22;;
31238;SDS011;17871;31.584;74.450;2023-09-19T08:33:02;7.25;;;5.25;;
31238;SDS011;17871;31.584;74.450;2023-09-19T08:35:33;7.93;;;4.65;;
31238;SDS011;17871;31.584;74.450;2023-09-19T08:38:03;9.05;;;5.40;;
31238;SDS011;17871;31.584;74.450;2023-09-19T08:40:32;7.53;;;4.25;;
31238;SDS011;17871;31.584;74.450;2023-09-19T08:43:08;5.43;;;3.53;;
31238;SDS011;17871;31.584;74.450;2023-09-19T08:45:37;5.85;;;3.88;;
31238;SDS011;17871;31.584;74.450;2023-09-19T08:48:12;3.50;;;2.92;;
31238;SDS011;17871;31.584;74.450;2023-09-19T08:51:21;6.30;;;4.03;;
31238;SDS011;17871;31.584;74.450;2023-09-19T08:56:18;5.50;;;4.50;;
31238;SDS011;17871;31.584;74.450;2023-09-19T09:01:18;5.70;;;3.90;;
31238;SDS011;17871;31.584;74.450;2023-09-19T09:03:53;5.53;;;4.03;;
31238;SDS011;17871;31.584;74.450;2023-09-19T09:06:23;6.07;;;4.03;;
31238;SDS011;17871;31.584;74.450;2023-09-19T09:08:53;5.72;;;3.53;;
31238;SDS011;17871;31.584;74.450;2023-09-19T09:11:23;6.88;;;4.45;;
31238;SDS011;17871;31.584;74.450;2023-09-19T09:13:56;7.35;;;4.40;;
31238;SDS011;17871;31.584;74.450;2023-09-19T09:16:27;5.73;;;4.13;;
31238;SDS011;17871;31.584;74.450;2023-09-19T09:18:59;5.82;;;3.58;;
31238;SDS011;17871;31.584;74.450;2023-09-19T09:21:28;6.35;;;3.90;;
31238;SDS011;17871;31.584;74.450;2023-09-19T09:23:57;7.68;;;4.93;;
31238;SDS011;17871;31.584;74.450;2023-09-19T09:29:08;9.38;;;5.60;;
31238;SDS011;17871;31.584;74.450;2023-09-19T09:31:37;6.20;;;5.20;;
31238;SDS011;17871;31.584;74.450;2023-09-19T09:34:07;11.27;;;5.43;;
31238;SDS011;17871;31.584;74.450;2023-09-19T09:36:38;7.47;;;5.00;;
31238;SDS011;17871;31.584;74.450;2023-09-19T09:41:48;7.90;;;4.70;;
31238;SDS011;17871;31.584;74.450;2023-09-19T09:44:21;7.13;;;4.50;;
31238;SDS011;17871;31.584;74.450;2023-09-19T09:46:51;7.18;;;5.07;;
31238;SDS011;17871;31.584;74.450;2023-09-19T09:49:43;10.63;;;5.72;;
31238;SDS011;17871;31.584;74.450;2023-09-19T09:52:24;10.10;;;6.35;;
31238;SDS011;17871;31.584;74.450;2023-09-19T09:55:01;11.52;;;6.35;;
31238;SDS011;17871;31.584;74.450;2023-09-19T09:57:34;8.95;;;5.88;;
31238;SDS011;17871;31.584;74.450;2023-09-19T10:00:03;9.82;;;5.90;;
31238;SDS011;17871;31.584;74.450;2023-09-19T10:02:42;7.78;;;5.95;;
31238;SDS011;17871;31.584;74.450;2023-09-19T10:05:30;9.15;;;6.60;;
31238;SDS011;17871;31.584;74.450;2023-09-19T10:08:11;12.77;;;6.95;;
31238;SDS011;17871;31.584;74.450;2023-09-19T10:10:42;12.43;;;8.45;;
31238;SDS011;17871;31.584;74.450;2023-09-19T10:13:13;17.67;;;9.88;;
31238;SDS011;17871;31.584;74.450;2023-09-19T10:15:48;15.63;;;8.70;;
31238;SDS011;17871;31.584;74.450;2023-09-19T10:18:24;16.58;;;9.07;;
31238;SDS011;17871;31.584;74.450;2023-09-19T10:20:54;15.93;;;8.02;;
31238;SDS011;17871;31.584;74.450;2023-09-19T10:23:24;17.13;;;9.50;;
31238;SDS011;17871;31.584;74.450;2023-09-19T10:25:56;11.68;;;8.65;;
31238;SDS011;17871;31.584;74.450;2023-09-19T10:28:27;13.63;;;9.02;;
31238;SDS011;17871;31.584;74.450;2023-09-19T10:30:58;17.63;;;9.32;;
31238;SDS011;17871;31.584;74.450;2023-09-19T10:33:31;12.10;;;9.40;;
31238;SDS011;17871;31.584;74.450;2023-09-19T10:36:06;14.32;;;9.65;;
31238;SDS011;17871;31.584;74.450;2023-09-19T10:38:37;13.85;;;9.45;;
31238;SDS011;17871;31.584;74.450;2023-09-19T10:41:09;16.20;;;9.68;;
31238;SDS011;17871;31.584;74.450;2023-09-19T10:43:40;12.75;;;9.20;;
31238;SDS011;17871;31.584;74.450;2023-09-19T10:46:13;16.40;;;10.18;;
31238;SDS011;17871;31.584;74.450;2023-09-19T10:48:42;16.25;;;10.93;;
31238;SDS011;17871;31.584;74.450;2023-09-19T10:51:21;19.17;;;10.57;;
31238;SDS011;17871;31.584;74.450;2023-09-19T10:53:55;17.42;;;11.65;;
31238;SDS011;17871;31.584;74.450;2023-09-19T10:56:33;13.75;;;10.13;;
31238;SDS011;17871;31.584;74.450;2023-09-19T10:59:09;15.50;;;10.32;;
31238;SDS011;17871;31.584;74.450;2023-09-19T11:01:45;18.33;;;10.57;;
31238;SDS011;17871;31.584;74.450;2023-09-19T11:04:34;17.33;;;11.20;;
31238;SDS011;17871;31.584;74.450;2023-09-19T11:07:05;15.02;;;10.55;;
31238;SDS011;17871;31.584;74.450;2023-09-19T11:09:52;21.15;;;12.60;;
31238;SDS011;17871;31.584;74.450;2023-09-19T11:18:02;20.17;;;12.63;;
31238;SDS011;17871;31.584;74.450;2023-09-19T11:21:00;17.52;;;11.55;;
31238;SDS011;17871;31.584;74.450;2023-09-19T11:23:41;17.38;;;11.98;;
31238;SDS011;17871;31.584;74.450;2023-09-19T11:26:19;21.23;;;11.68;;
31238;SDS011;17871;31.584;74.450;2023-09-19T11:29:24;17.45;;;12.02;;
31238;SDS011;17871;31.584;74.450;2023-09-19T11:31:48;15.18;;;10.32;;
31238;SDS011;17871;31.584;74.450;2023-09-19T11:40:04;18.77;;;12.55;;
31238;SDS011;17871;31.584;74.450;2023-09-19T11:42:45;22.10;;;12.10;;
31238;SDS011;17871;31.584;74.450;2023-09-19T11:48:19;19.02;;;11.85;;
31238;SDS011;17871;31.584;74.450;2023-09-19T11:50:48;19.73;;;12.35;;
31238;SDS011;17871;31.584;74.450;2023-09-19T11:53:20;18.02;;;11.65;;
31238;SDS011;17871;31.584;74.450;2023-09-19T11:55:50;16.42;;;10.88;;
31238;SDS011;17871;31.584;74.450;2023-09-19T11:58:21;20.77;;;14.68;;
31238;SDS011;17871;31.584;74.450;2023-09-19T12:00:53;21.05;;;14.25;;
31238;SDS011;17871;31.584;74.450;2023-09-19T12:03:23;21.35;;;14.07;;
31238;SDS011;17871;31.584;74.450;2023-09-19T12:05:52;21.30;;;13.80;;
31238;SDS011;17871;31.584;74.450;2023-09-19T12:08:22;24.58;;;13.75;;
31238;SDS011;17871;31.584;74.450;2023-09-19T12:10:50;29.38;;;13.20;;
31238;SDS011;17871;31.584;74.450;2023-09-19T12:13:20;20.40;;;12.15;;
31238;SDS011;17871;31.584;74.450;2023-09-19T12:15:49;23.40;;;13.20;;
31238;SDS011;17871;31.584;74.450;2023-09-19T12:18:27;17.75;;;10.23;;
31238;SDS011;17871;31.584;74.450;2023-09-19T12:20:56;16.88;;;10.68;;
31238;SDS011;17871;31.584;74.450;2023-09-19T12:23:26;17.58;;;11.32;;
31238;SDS011;17871;31.584;74.450;2023-09-19T12:25:55;18.40;;;11.32;;
31238;SDS011;17871;31.584;74.450;2023-09-19T12:28:27;19.23;;;12.07;;
31238;SDS011;17871;31.584;74.450;2023-09-19T12:31:06;21.15;;;12.60;;
31238;SDS011;17871;31.584;74.450;2023-09-19T12:33:36;17.20;;;10.90;;
31238;SDS011;17871;31.584;74.450;2023-09-19T12:36:24;19.83;;;11.95;;
31238;SDS011;17871;31.584;74.450;2023-09-19T12:38:59;19.52;;;11.30;;
31238;SDS011;17871;31.584;74.450;2023-09-19T12:41:28;22.45;;;13.77;;
31238;SDS011;17871;31.584;74.450;2023-09-19T12:43:57;23.95;;;12.98;;
31238;SDS011;17871;31.584;74.450;2023-09-19T12:46:28;24.40;;;13.45;;
31238;SDS011;17871;31.584;74.450;2023-09-19T12:49:18;23.80;;;14.02;;
31238;SDS011;17871;31.584;74.450;2023-09-19T12:51:47;25.58;;;13.95;;
31238;SDS011;17871;31.584;74.450;2023-09-19T12:54:16;25.17;;;14.43;;
31238;SDS011;17871;31.584;74.450;2023-09-19T12:56:45;33.42;;;15.35;;
31238;SDS011;17871;31.584;74.450;2023-09-19T12:59:16;36.08;;;17.67;;
31238;SDS011;17871;31.584;74.450;2023-09-19T13:01:45;33.42;;;16.58;;
31238;SDS011;17871;31.584;74.450;2023-09-19T13:04:22;32.58;;;15.25;;
31238;SDS011;17871;31.584;74.450;2023-09-19T13:06:58;30.40;;;13.95;;
31238;SDS011;17871;31.584;74.450;2023-09-19T13:09:29;23.42;;;12.50;;
31238;SDS011;17871;31.584;74.450;2023-09-19T13:12:04;20.15;;;11.43;;
31238;SDS011;17871;31.584;74.450;2023-09-19T13:14:36;21.05;;;11.45;;
31238;SDS011;17871;31.584;74.450;2023-09-19T13:17:13;18.95;;;10.95;;
31238;SDS011;17871;31.584;74.450;2023-09-19T13:19:46;17.70;;;10.20;;
31238;SDS011;17871;31.584;74.450;2023-09-19T13:25:18;24.27;;;11.02;;
31238;SDS011;17871;31.584;74.450;2023-09-19T13:27:51;26.40;;;13.45;;
31238;SDS011;17871;31.584;74.450;2023-09-19T13:30:23;32.47;;;14.20;;
31238;SDS011;17871;31.584;74.450;2023-09-19T13:33:08;32.25;;;15.40;;
31238;SDS011;17871;31.584;74.450;2023-09-19T13:35:38;36.42;;;16.38;;
31238;SDS011;17871;31.584;74.450;2023-09-19T13:38:11;39.63;;;17.23;;
31238;SDS011;17871;31.584;74.450;2023-09-19T13:40:40;43.55;;;17.92;;
31238;SDS011;17871;31.584;74.450;2023-09-19T13:43:12;29.70;;;15.18;;
31238;SDS011;17871;31.584;74.450;2023-09-19T13:45:41;33.70;;;14.93;;
31238;SDS011;17871;31.584;74.450;2023-09-19T13:48:11;29.13;;;13.95;;
31238;SDS011;17871;31.584;74.450;2023-09-19T13:50:40;27.85;;;13.80;;
31238;SDS011;17871;31.584;74.450;2023-09-19T13:53:12;31.15;;;15.43;;
31238;SDS011;17871;31.584;74.450;2023-09-19T13:55:41;37.85;;;17.20;;
31238;SDS011;17871;31.584;74.450;2023-09-19T13:58:10;40.92;;;16.83;;
31238;SDS011;17871;31.584;74.450;2023-09-19T14:00:40;39.70;;;17.88;;
31238;SDS011;17871;31.584;74.450;2023-09-19T14:03:10;47.80;;;17.63;;
31238;SDS011;17871;31.584;74.450;2023-09-19T14:05:39;55.20;;;20.80;;
31238;SDS011;17871;31.584;74.450;2023-09-19T14:08:08;46.13;;;20.77;;
31238;SDS011;17871;31.584;74.450;2023-09-19T14:10:37;49.70;;;19.00;;
31238;SDS011;17871;31.584;74.450;2023-09-19T14:13:07;56.40;;;18.90;;
31238;SDS011;17871;31.584;74.450;2023-09-19T14:15:36;41.17;;;17.77;;
31238;SDS011;17871;31.584;74.450;2023-09-19T14:18:06;46.33;;;17.65;;
31238;SDS011;17871;31.584;74.450;2023-09-19T14:20:37;43.15;;;17.95;;
31238;SDS011;17871;31.584;74.450;2023-09-19T14:23:07;37.67;;;15.20;;
31238;SDS011;17871;31.584;74.450;2023-09-19T14:25:36;30.60;;;14.88;;
31238;SDS011;17871;31.584;74.450;2023-09-19T14:28:06;34.30;;;15.43;;
31238;SDS011;17871;31.584;74.450;2023-09-19T14:30:37;28.85;;;14.55;;
31238;SDS011;17871;31.584;74.450;2023-09-19T14:33:07;34.20;;;15.43;;
31238;SDS011;17871;31.584;74.450;2023-09-19T14:35:39;33.53;;;16.67;;
31238;SDS011;17871;31.584;74.450;2023-09-19T14:38:09;35.25;;;17.58;;
31238;SDS011;17871;31.584;74.450;2023-09-19T14:40:37;33.95;;;18.02;;
31238;SDS011;17871;31.584;74.450;2023-09-19T14:43:08;37.53;;;17.63;;
31238;SDS011;17871;31.584;74.450;2023-09-19T14:45:36;31.95;;;15.73;;
31238;SDS011;17871;31.584;74.450;2023-09-19T14:48:06;36.00;;;15.73;;
31238;SDS011;17871;31.584;74.450;2023-09-19T14:50:39;41.00;;;17.00;;
31238;SDS011;17871;31.584;74.450;2023-09-19T14:53:08;39.53;;;18.23;;
31238;SDS011;17871;31.584;74.450;2023-09-19T14:55:39;42.90;;;18.98;;
31238;SDS011;17871;31.584;74.450;2023-09-19T14:58:13;44.70;;;19.58;;
31238;SDS011;17871;31.584;74.450;2023-09-19T15:00:42;48.75;;;20.17;;
31238;SDS011;17871;31.584;74.450;2023-09-19T15:03:14;45.90;;;20.40;;
31238;SDS011;17871;31.584;74.450;2023-09-19T15:05:44;54.72;;;17.88;;
31238;SDS011;17871;31.584;74.450;2023-09-19T15:08:13;49.38;;;18.00;;
31238;SDS011;17871;31.584;74.450;2023-09-19T15:10:48;46.63;;;18.70;;
31238;SDS011;17871;31.584;74.450;2023-09-19T15:13:18;39.50;;;16.95;;
31238;SDS011;17871;31.584;74.450;2023-09-19T15:15:46;43.55;;;17.08;;
31238;SDS011;17871;31.584;74.450;2023-09-19T15:18:16;37.22;;;14.98;;
31238;SDS011;17871;31.584;74.450;2023-09-19T15:20:45;35.78;;;17.17;;
31238;SDS011;17871;31.584;74.450;2023-09-19T15:23:15;38.95;;;17.63;;
31238;SDS011;17871;31.584;74.450;2023-09-19T15:25:58;42.65;;;18.52;;
31238;SDS011;17871;31.584;74.450;2023-09-19T15:28:28;40.13;;;18.60;;
31238;SDS011;17871;31.584;74.450;2023-09-19T15:31:00;46.40;;;19.08;;
31238;SDS011;17871;31.584;74.450;2023-09-19T15:33:30;49.70;;;19.95;;